createdAt,value
2023-02-05T00:02:01.701Z,46.57
2023-02-05T00:05:03.868Z,46.59
2023-02-05T00:08:06.050Z,46.60
2023-02-05T00:11:09.301Z,46.59
2023-02-05T00:14:11.614Z,46.55
2023-02-05T00:17:13.687Z,46.56
2023-02-05T00:20:15.852Z,46.57
2023-02-05T00:23:17.919Z,46.59
2023-02-05T00:26:20.146Z,46.56
2023-02-05T00:29:22.282Z,46.57
2023-02-05T00:32:24.463Z,46.54
2023-02-05T00:35:26.508Z,46.56
2023-02-05T00:38:28.686Z,46.56
2023-02-05T00:41:30.787Z,46.58
2023-02-05T00:44:32.956Z,46.56
2023-02-05T00:47:35.038Z,46.55
2023-02-05T00:50:37.172Z,46.54
2023-02-05T00:53:39.487Z,46.54
2023-02-05T00:56:41.559Z,46.56
2023-02-05T00:59:43.597Z,46.54
2023-02-05T01:02:45.827Z,46.57
2023-02-05T01:05:48.020Z,46.52
2023-02-05T01:08:50.083Z,46.51
2023-02-05T01:11:52.171Z,46.51
2023-02-05T01:14:54.347Z,46.49
2023-02-05T01:17:57.980Z,46.53
2023-02-05T01:21:00.106Z,46.49
2023-02-05T01:24:02.314Z,46.47
2023-02-05T01:27:04.753Z,46.47
2023-02-05T01:30:08.017Z,46.47
2023-02-05T01:33:10.108Z,46.45
2023-02-05T01:36:12.159Z,46.46
2023-02-05T01:39:14.409Z,46.44
2023-02-05T01:42:22.866Z,46.41
2023-02-05T01:45:32.854Z,46.42
2023-02-05T01:48:45.299Z,46.43
2023-02-05T01:51:49.014Z,46.42
2023-02-05T01:54:53.452Z,46.42
2023-02-05T01:57:56.151Z,46.43
2023-02-05T02:00:58.396Z,46.41
2023-02-05T02:04:04.562Z,46.41
2023-02-05T02:07:09.917Z,46.44
2023-02-05T02:10:15.904Z,46.42
2023-02-05T02:13:20.252Z,46.43
2023-02-05T02:16:23.364Z,46.44
2023-02-05T02:19:42.615Z,46.43
2023-02-05T02:22:55.540Z,46.43
2023-02-05T02:26:18.881Z,46.44
2023-02-05T02:29:37.610Z,46.47
2023-02-05T02:32:55.182Z,46.42
2023-02-05T02:36:25.939Z,46.43
2023-02-05T02:39:48.074Z,46.42
2023-02-05T02:43:05.152Z,46.47
2023-02-05T02:46:12.172Z,46.43
2023-02-05T02:49:21.588Z,46.45
2023-02-05T02:52:25.532Z,46.44
2023-02-05T02:55:29.157Z,46.44
2023-02-05T02:58:42.675Z,46.47
2023-02-05T03:01:53.709Z,46.45
2023-02-05T03:05:09.023Z,46.45
2023-02-05T03:08:36.292Z,46.47
2023-02-05T03:11:38.485Z,46.47
2023-02-05T03:14:40.531Z,46.51
2023-02-05T03:17:43.263Z,46.48
2023-02-05T03:20:55.204Z,46.53
2023-02-05T03:23:57.402Z,46.51
2023-02-05T03:26:59.512Z,46.51
2023-02-05T03:30:02.234Z,46.51
2023-02-05T03:33:34.532Z,46.52
2023-02-05T03:36:47.708Z,46.53
2023-02-05T03:40:11.706Z,46.53
2023-02-05T03:43:30.290Z,46.54
2023-02-05T03:47:05.571Z,46.52
2023-02-05T03:50:22.040Z,46.52
2023-02-05T03:53:34.470Z,46.54
2023-02-05T03:57:05.692Z,46.55
2023-02-05T04:00:08.796Z,46.55
2023-02-05T04:03:11.028Z,46.59
2023-02-05T04:06:13.335Z,46.55
2023-02-05T04:09:15.584Z,46.54
2023-02-05T04:12:17.645Z,46.57
2023-02-05T04:15:19.736Z,46.54
2023-02-05T04:18:21.976Z,46.58
2023-02-05T04:21:24.074Z,46.57
2023-02-05T04:24:26.217Z,46.61
2023-02-05T04:27:28.272Z,46.64
2023-02-05T04:30:30.315Z,46.64
2023-02-05T04:33:32.770Z,46.64
2023-02-05T04:36:34.851Z,46.64
2023-02-05T04:39:36.909Z,46.65
2023-02-05T04:42:38.992Z,46.69
2023-02-05T04:45:41.072Z,46.72
2023-02-05T04:48:43.233Z,46.74
2023-02-05T04:51:45.257Z,46.73
2023-02-05T04:54:47.313Z,46.76
2023-02-05T04:57:51.273Z,46.81
2023-02-05T05:00:54.474Z,46.82
2023-02-05T05:03:56.705Z,46.85
2023-02-05T05:06:58.946Z,46.88
2023-02-05T05:10:01.036Z,46.84
2023-02-05T05:13:03.126Z,46.90
2023-02-05T05:16:06.738Z,46.91
2023-02-05T05:19:08.822Z,46.93
2023-02-05T05:22:10.889Z,46.91
2023-02-05T05:25:13.025Z,46.93
2023-02-05T05:28:16.609Z,46.95
2023-02-05T05:31:19.553Z,46.96
2023-02-05T05:34:22.053Z,46.94
2023-02-05T05:37:24.182Z,46.96
2023-02-05T05:40:46.089Z,46.96
2023-02-05T05:43:48.698Z,46.99
2023-02-05T05:46:50.972Z,47.01
2023-02-05T05:49:53.069Z,47.02
2023-02-05T05:52:55.221Z,46.99
2023-02-05T05:55:57.317Z,46.99
2023-02-05T05:58:59.356Z,47.01
2023-02-05T06:05:04.942Z,46.96
2023-02-05T06:08:07.551Z,46.95
2023-02-05T06:11:09.662Z,46.99
2023-02-05T06:14:11.842Z,46.92
2023-02-05T06:17:13.903Z,46.64
2023-02-05T06:20:16.348Z,46.41
2023-02-05T06:23:18.538Z,46.31
2023-02-05T06:26:20.889Z,46.28
2023-02-05T06:29:22.930Z,46.30
2023-02-05T06:32:26.849Z,46.25
2023-02-05T06:35:29.005Z,46.19
2023-02-05T06:38:31.194Z,46.16
2023-02-05T06:41:33.246Z,46.09
2023-02-05T06:44:35.336Z,45.97
2023-02-05T06:47:37.900Z,45.85
2023-02-05T06:50:39.992Z,45.86
2023-02-05T06:53:42.107Z,45.92
2023-02-05T06:56:44.267Z,46.00
2023-02-05T06:59:46.466Z,45.99
2023-02-05T07:02:48.517Z,45.98
2023-02-05T07:05:50.732Z,45.99
2023-02-05T07:08:53.719Z,45.96
2023-02-05T07:11:55.745Z,46.00
2023-02-05T07:14:57.752Z,46.01
2023-02-05T07:18:00.145Z,46.26
2023-02-05T07:21:09.085Z,46.40
2023-02-05T07:24:11.185Z,46.45
2023-02-05T07:27:13.237Z,46.48
2023-02-05T07:30:15.719Z,46.48
2023-02-05T07:33:17.823Z,46.53
2023-02-05T07:36:20.073Z,46.56
2023-02-05T07:39:22.142Z,46.60
2023-02-05T07:42:24.497Z,46.55
2023-02-05T07:45:26.626Z,46.49
2023-02-05T07:48:28.630Z,46.42
2023-02-05T07:51:30.710Z,46.49
2023-02-05T07:54:32.724Z,46.55
2023-02-05T07:57:34.956Z,46.55
2023-02-05T08:00:37.266Z,46.36
2023-02-05T08:03:39.504Z,46.12
2023-02-05T08:06:41.729Z,46.01
2023-02-05T08:09:43.969Z,46.03
2023-02-05T08:12:46.116Z,46.24
2023-02-05T08:15:48.121Z,46.10
2023-02-05T08:18:50.817Z,45.97
2023-02-05T08:21:53.251Z,45.97
2023-02-05T08:24:55.289Z,46.15
2023-02-05T08:27:57.382Z,46.18
2023-02-05T08:30:59.487Z,45.73
2023-02-05T08:34:02.185Z,45.86
2023-02-05T08:37:04.261Z,46.17
2023-02-05T08:40:06.684Z,46.57
2023-02-05T08:43:08.784Z,46.55
2023-02-05T08:46:12.434Z,46.38
2023-02-05T08:49:14.474Z,46.50
2023-02-05T08:52:16.766Z,46.50
2023-02-05T08:55:18.898Z,46.76
2023-02-05T08:58:20.926Z,46.81
2023-02-05T09:01:23.137Z,46.56
2023-02-05T09:04:25.395Z,46.40
2023-02-05T09:07:27.516Z,46.44
2023-02-05T09:10:29.654Z,46.45
2023-02-05T09:13:31.793Z,47.10
2023-02-05T09:16:33.887Z,46.94
2023-02-05T09:19:37.820Z,46.68
2023-02-05T09:22:39.886Z,46.65
2023-02-05T09:25:42.132Z,46.68
2023-02-05T09:28:44.717Z,46.64
2023-02-05T09:31:47.002Z,46.33
2023-02-05T09:34:49.528Z,46.20
2023-02-05T09:37:51.620Z,46.23
2023-02-05T09:41:08.327Z,46.53
2023-02-05T09:44:27.146Z,47.20
2023-02-05T09:47:40.971Z,47.04
2023-02-05T09:50:43.540Z,47.35
2023-02-05T09:53:51.912Z,46.79
2023-02-05T09:56:56.766Z,46.72
2023-02-05T09:59:59.310Z,46.65
2023-02-05T10:03:18.405Z,46.53
2023-02-05T10:06:29.286Z,46.50
2023-02-05T10:09:49.830Z,46.56
2023-02-05T10:13:29.722Z,46.33
2023-02-05T10:16:59.308Z,46.15
2023-02-05T10:20:27.096Z,46.24
2023-02-05T10:23:38.154Z,46.26
2023-02-05T10:26:51.796Z,46.17
2023-02-05T10:30:12.351Z,45.99
2023-02-05T10:33:24.774Z,45.82
2023-02-05T10:36:27.656Z,45.78
2023-02-05T10:39:31.211Z,45.80
2023-02-05T10:42:44.115Z,45.77
2023-02-05T10:45:46.768Z,45.40
2023-02-05T10:48:59.757Z,45.34
2023-02-05T10:52:01.773Z,45.53
2023-02-05T10:55:04.097Z,45.77
2023-02-05T10:58:22.586Z,45.91
2023-02-05T11:01:29.976Z,46.02
2023-02-05T11:04:49.737Z,45.99
2023-02-05T11:07:54.956Z,46.22
2023-02-05T11:10:57.183Z,46.41
2023-02-05T11:14:06.300Z,46.44
2023-02-05T11:17:21.260Z,46.32
2023-02-05T11:20:30.134Z,46.10
2023-02-05T11:23:38.947Z,46.20
2023-02-05T11:26:41.018Z,46.24
2023-02-05T11:29:43.922Z,46.35
2023-02-05T11:32:45.961Z,46.37
2023-02-05T11:36:06.180Z,46.15
2023-02-05T11:39:17.097Z,46.09
2023-02-05T11:42:26.417Z,46.15
2023-02-05T11:45:31.147Z,46.29
2023-02-05T11:48:46.051Z,46.28
2023-02-05T11:51:51.867Z,46.01
2023-02-05T11:54:54.276Z,45.92
2023-02-05T11:58:02.745Z,45.96
2023-02-05T12:01:24.102Z,46.09
2023-02-05T12:04:28.411Z,46.10
2023-02-05T12:07:41.049Z,45.83
2023-02-05T12:11:07.269Z,45.66
2023-02-05T12:14:15.531Z,45.77
2023-02-05T12:17:41.935Z,45.77
2023-02-05T12:21:08.207Z,45.87
2023-02-05T12:24:35.992Z,45.70
2023-02-05T12:27:40.937Z,45.61
2023-02-05T12:30:57.898Z,45.65
2023-02-05T12:34:24.383Z,45.64
2023-02-05T12:37:30.349Z,45.44
2023-02-05T12:40:42.140Z,45.38
2023-02-05T12:43:49.743Z,45.39
2023-02-05T12:47:29.593Z,45.49
2023-02-05T12:50:53.669Z,45.36
2023-02-05T12:54:22.354Z,45.30
2023-02-05T12:57:32.855Z,45.35
2023-02-05T13:00:40.679Z,45.47
2023-02-05T13:03:55.178Z,45.71
2023-02-05T13:07:11.713Z,45.74
2023-02-05T13:10:45.990Z,45.73
2023-02-05T13:13:57.080Z,45.64
2023-02-05T13:17:21.249Z,45.61
2023-02-05T13:20:49.211Z,45.61
2023-02-05T13:24:12.786Z,45.68
2023-02-05T13:27:47.460Z,45.71
2023-02-05T13:30:55.410Z,45.73
2023-02-05T13:34:03.272Z,45.75
2023-02-05T13:37:34.044Z,45.75
2023-02-05T13:41:20.366Z,45.70
2023-02-05T13:44:48.225Z,45.68
2023-02-05T13:48:12.630Z,45.72
2023-02-05T13:51:21.915Z,45.76
2023-02-05T13:54:54.420Z,45.80
2023-02-05T13:58:11.998Z,46.05
2023-02-05T14:01:22.088Z,46.23
2023-02-05T14:04:42.134Z,46.27
2023-02-05T14:07:50.681Z,46.26
2023-02-05T14:11:04.042Z,45.89
2023-02-05T14:14:25.374Z,46.54
2023-02-05T14:17:30.989Z,46.97
2023-02-05T14:20:36.316Z,47.52
2023-02-05T14:23:47.305Z,41.34
2023-02-05T14:26:53.414Z,41.71
2023-02-05T14:29:56.772Z,43.74
2023-02-05T14:33:03.082Z,45.96
2023-02-05T14:36:17.259Z,46.04
2023-02-05T14:39:25.985Z,46.07
2023-02-05T14:42:30.148Z,46.06
2023-02-05T14:45:32.794Z,46.15
2023-02-05T14:48:40.724Z,47.29
2023-02-05T14:51:51.686Z,47.15
2023-02-05T14:55:01.020Z,47.04
2023-02-05T14:58:09.400Z,46.96
2023-02-05T15:01:31.079Z,46.90
2023-02-05T15:04:49.324Z,47.72
2023-02-05T15:07:58.286Z,47.69
2023-02-05T15:11:19.743Z,47.49
2023-02-05T15:14:22.241Z,47.93
2023-02-05T15:17:30.447Z,47.88
2023-02-05T15:20:36.072Z,47.48
2023-02-05T15:24:03.232Z,47.73
2023-02-05T15:27:19.797Z,47.38
2023-02-05T15:30:25.800Z,47.14
2023-02-05T15:33:53.882Z,47.31
2023-02-05T15:37:15.851Z,47.73
2023-02-05T15:40:32.384Z,47.81
2023-02-05T15:43:34.425Z,47.86
2023-02-05T15:46:37.061Z,47.88
2023-02-05T15:49:45.912Z,47.86
2023-02-05T15:52:48.197Z,47.72
2023-02-05T15:55:51.791Z,47.63
2023-02-05T15:59:03.836Z,47.47
2023-02-05T16:02:08.896Z,47.28
2023-02-05T16:05:19.878Z,47.25
2023-02-05T16:08:23.468Z,47.11
2023-02-05T16:11:33.267Z,46.98
2023-02-05T16:14:35.844Z,46.85
2023-02-05T16:17:40.104Z,46.72
2023-02-05T16:20:50.666Z,46.67
2023-02-05T16:24:06.104Z,46.97
2023-02-05T16:27:36.835Z,47.02
2023-02-05T16:30:42.694Z,44.78
2023-02-05T16:34:01.478Z,46.86
2023-02-05T16:37:05.976Z,45.86
2023-02-05T16:40:09.638Z,45.72
2023-02-05T16:43:22.767Z,45.77
2023-02-05T16:46:29.784Z,45.89
2023-02-05T16:49:31.989Z,46.03
2023-02-05T16:52:35.788Z,46.13
2023-02-05T16:55:42.625Z,46.28
2023-02-05T16:58:50.623Z,46.34
2023-02-05T17:01:53.756Z,46.45
2023-02-05T17:04:57.715Z,46.59
2023-02-05T17:08:02.097Z,46.57
2023-02-05T17:11:07.231Z,46.63
2023-02-05T17:14:28.135Z,46.60
2023-02-05T17:17:31.936Z,46.58
2023-02-05T17:20:34.818Z,46.58
2023-02-05T17:23:37.054Z,46.57
2023-02-05T17:26:42.744Z,46.62
2023-02-05T17:29:45.790Z,46.67
2023-02-05T17:32:50.496Z,46.73
2023-02-05T17:35:52.674Z,46.74
2023-02-05T17:38:55.049Z,46.80
2023-02-05T17:42:07.766Z,46.82
2023-02-05T17:45:24.118Z,46.89
2023-02-05T17:48:26.153Z,46.89
2023-02-05T17:51:28.246Z,46.96
2023-02-05T17:54:31.062Z,46.97
2023-02-05T17:57:34.906Z,47.03
2023-02-05T18:00:37.263Z,47.05
2023-02-05T18:03:39.550Z,47.09
2023-02-05T18:06:42.881Z,47.15
2023-02-05T18:09:45.050Z,47.17
2023-02-05T18:12:47.118Z,47.20
2023-02-05T18:15:54.455Z,47.21
2023-02-05T18:18:56.581Z,47.27
2023-02-05T18:21:58.605Z,47.33
2023-02-05T18:25:00.959Z,47.37
2023-02-05T18:28:03.125Z,47.40
2023-02-05T18:31:08.101Z,47.43
2023-02-05T18:34:10.231Z,47.44
2023-02-05T18:37:14.043Z,47.49
2023-02-05T18:40:16.422Z,47.50
2023-02-05T18:43:18.773Z,47.53
2023-02-05T18:46:21.306Z,47.54
2023-02-05T18:49:23.805Z,47.55
2023-02-05T18:52:27.424Z,47.56
2023-02-05T18:55:34.937Z,47.57
2023-02-05T18:58:37.166Z,47.55
2023-02-05T19:01:40.166Z,47.60
2023-02-05T19:04:42.372Z,47.67
2023-02-05T19:07:46.087Z,47.90
2023-02-05T19:10:48.170Z,47.97
2023-02-05T19:14:04.790Z,48.04
2023-02-05T19:17:06.883Z,48.08
2023-02-05T19:20:09.277Z,48.05
2023-02-05T19:23:11.308Z,48.10
2023-02-05T19:26:17.210Z,48.09
2023-02-05T19:29:20.341Z,48.11
2023-02-05T19:32:23.829Z,48.12
2023-02-05T19:35:25.900Z,48.09
2023-02-05T19:38:28.264Z,48.08
2023-02-05T19:41:33.054Z,48.11
2023-02-05T19:44:35.158Z,48.07
2023-02-05T19:47:37.197Z,48.05
2023-02-05T19:50:40.055Z,48.05
2023-02-05T19:53:44.021Z,48.08
2023-02-05T19:56:47.427Z,48.08
2023-02-05T19:59:49.542Z,48.08
2023-02-05T20:02:55.450Z,48.08
2023-02-05T20:06:00.976Z,48.07
2023-02-05T20:09:10.125Z,48.07
2023-02-05T20:12:13.128Z,48.06
2023-02-05T20:15:16.916Z,48.05
2023-02-05T20:18:18.914Z,48.05
2023-02-05T20:21:21.622Z,48.05
2023-02-05T20:24:23.912Z,48.09
2023-02-05T20:27:25.940Z,48.06
2023-02-05T20:30:46.873Z,48.09
2023-02-05T20:33:50.177Z,48.08
2023-02-05T20:36:57.887Z,48.10
2023-02-05T20:40:00.030Z,48.10
2023-02-05T20:43:04.594Z,48.12
2023-02-05T20:46:07.231Z,48.09
2023-02-05T20:49:09.871Z,48.10
2023-02-05T20:52:12.101Z,48.11
2023-02-05T20:55:14.266Z,48.12
2023-02-05T20:58:17.664Z,48.10
2023-02-05T21:01:22.504Z,48.11
2023-02-05T21:04:25.493Z,48.14
2023-02-05T21:07:29.657Z,48.15
2023-02-05T21:10:32.120Z,48.15
2023-02-05T21:13:35.237Z,48.13
2023-02-05T21:16:38.296Z,48.15
2023-02-05T21:19:40.510Z,48.13
2023-02-05T21:22:42.614Z,48.12
2023-02-05T21:25:45.333Z,48.10
2023-02-05T21:28:47.565Z,48.10
2023-02-05T21:31:52.966Z,48.15
2023-02-05T21:34:55.261Z,48.18
2023-02-05T21:37:57.367Z,48.21
2023-02-05T21:40:59.375Z,48.25
2023-02-05T21:44:02.165Z,48.24
2023-02-05T21:47:04.233Z,48.28
2023-02-05T21:50:06.882Z,48.28
2023-02-05T21:53:08.913Z,48.30
2023-02-05T21:56:14.935Z,48.28
2023-02-05T21:59:17.124Z,48.29
2023-02-05T22:02:19.337Z,48.30
2023-02-05T22:05:21.470Z,48.30
2023-02-05T22:08:23.586Z,48.28
2023-02-05T22:11:26.513Z,48.28
2023-02-05T22:14:29.347Z,48.34
2023-02-05T22:17:31.373Z,48.33
2023-02-05T22:20:33.570Z,48.35
2023-02-05T22:23:35.820Z,48.38
2023-02-05T22:26:39.141Z,48.37
2023-02-05T22:29:41.390Z,48.37
2023-02-05T22:32:43.461Z,48.35
2023-02-05T22:35:50.919Z,48.36
2023-02-05T22:38:53.592Z,48.37
2023-02-05T22:41:55.600Z,48.37
2023-02-05T22:44:57.669Z,48.34
2023-02-05T22:47:59.701Z,48.35
2023-02-05T22:51:06.800Z,48.32
2023-02-05T22:54:11.814Z,48.34
2023-02-05T22:57:13.959Z,48.31
2023-02-05T23:00:16.534Z,48.33
2023-02-05T23:03:18.574Z,48.32
2023-02-05T23:06:26.642Z,48.34
2023-02-05T23:09:28.721Z,48.34
2023-02-05T23:12:30.781Z,48.32
2023-02-05T23:15:37.561Z,48.31
2023-02-05T23:18:40.763Z,48.33
2023-02-05T23:21:43.627Z,48.35
2023-02-05T23:24:45.781Z,48.34
2023-02-05T23:27:47.823Z,48.32
2023-02-05T23:30:52.645Z,48.36
2023-02-05T23:33:55.006Z,48.34
2023-02-05T23:36:57.052Z,48.34
2023-02-05T23:39:59.155Z,48.32
2023-02-05T23:43:01.191Z,48.32
2023-02-05T23:46:04.610Z,48.30
2023-02-05T23:49:07.606Z,48.29
2023-02-05T23:52:09.714Z,48.28
2023-02-05T23:55:11.725Z,48.24
2023-02-05T23:58:14.307Z,48.22
